Wednesday, September 20, 2017, 9:29 PM EDT

KESN, Easton / Newman Field

Location: Easton, MD, United States Lat: 38.8
Local Time: 9:29 PM EDT ( 1:29 GMT) Lon: -76.067
Time Zone: US/Eastern Elev: 72 ft

Show me the last for .
Show Decoded

2017-09-20 20:50 METAR KESN 210050Z 00000KT 10SM SKC 22/20 A2998 =
2017-09-20 19:55 METAR KESN 202355Z 00000KT 10SM SKC 23/20 A2997 =
2017-09-20 18:55 METAR KESN 202255Z 00000KT 10SM SKC 26/20 A2995 =
2017-09-20 17:50 METAR KESN 202150Z 35005KT 10SM SKC 29/19 A2995 =
2017-09-20 16:53 METAR KESN 202053Z 33008KT 10SM FEW050 27/18 A2994 =
2017-09-20 15:50 METAR KESN 201950Z 01005KT 10SM FEW050 BKN120 28/19 A2994 =
2017-09-20 14:45 METAR KESN 201845Z 33009KT 10SM FEW050 BKN120 28/19 A2995 =
2017-09-20 13:50 METAR KESN 201750Z 34010G15KT 10SM FEW050 BKN150 27/19 A2995 =
2017-09-20 12:50 METAR KESN 201650Z 34010G14KT 10SM BKN150 27/18 A2997 =
2017-09-20 11:50 METAR KESN 201550Z 33010G18KT 10SM FEW040 BKN150 27/18 A2997 =
2017-09-20 10:50 METAR KESN 201450Z 32010KT 10SM BKN150 25/18 A2998 =
2017-09-20 09:50 METAR KESN 201350Z 34008KT 10SM BKN120 25/18 A2997 =
2017-09-20 08:50 METAR KESN 201250Z 35008KT 10SM SCT120 23/18 A2996 =
2017-09-20 07:50 METAR KESN 201150Z 35007KT 10SM SCT120 23/18 A2994 =
2017-09-20 06:45 METAR KESN 201045Z 33004KT 10SM SCT120 22/18 A2994 =
2017-09-20 05:50 METAR KESN 200950Z 32004KT 10SM SKC 22/18 A2992 =
2017-09-20 05:35 METAR KESN 200935Z AUTO 34006KT 10SM CLR 22/18 A2991 RMK AO2 T02200184 =
2017-09-20 05:15 METAR KESN 200915Z AUTO 35006KT 10SM SCT025 22/19 A2991 RMK AO2 T02190186 =
2017-09-20 04:55 METAR KESN 200855Z AUTO 34007KT 10SM SCT027 22/19 A2991 RMK AO2 T02200187 =
2017-09-20 04:35 METAR KESN 200835Z AUTO 34005KT 10SM CLR 22/19 A2991 RMK AO2 T02170188 =
2017-09-20 04:15 METAR KESN 200815Z AUTO 35007KT 10SM SCT026 22/19 A2990 RMK AO2 T02190190 =
2017-09-20 03:55 METAR KESN 200755Z AUTO 33006KT 10SM BKN026 22/19 A2990 RMK AO2 T02150191 =
2017-09-20 03:35 METAR KESN 200735Z AUTO 35005KT 10SM SCT024 22/19 A2990 RMK AO2 T02150190 =
2017-09-20 03:15 METAR KESN 200715Z AUTO 36005KT 10SM CLR 22/19 A2990 RMK AO2 T02160190 =
2017-09-20 02:55 METAR KESN 200655Z AUTO 36006KT 10SM SCT060 22/19 A2990 RMK AO2 T02160190 =
2017-09-20 02:35 METAR KESN 200635Z AUTO 35007KT 10SM BKN060 22/19 A2991 RMK AO2 T02180191 =
2017-09-20 02:15 METAR KESN 200615Z AUTO 36006KT 10SM SCT050 BKN070 22/19 A2991 RMK AO2 T02200190
                 =
2017-09-20 01:55 METAR KESN 200555Z AUTO 35007KT 10SM SCT050 BKN070 22/19 A2991 RMK AO2 60003
                 T02180192 10231 20217 402710210 =
2017-09-20 01:35 METAR KESN 200535Z AUTO 36006KT 10SM SCT050 BKN070 22/19 A2991 RMK AO2 T02200193
                 =
2017-09-20 01:15 METAR KESN 200515Z AUTO 35007KT 10SM SCT026 SCT031 BKN049 22/19 A2991 RMK AO2
                 T02210193 =
2017-09-20 00:55 METAR KESN 200455Z AUTO 01008G14KT 10SM SCT014 SCT020 OVC033 22/19 A2992 RMK AO2
                 T02210193 =
2017-09-20 00:35 METAR KESN 200435Z AUTO 03009G16KT 7SM SCT012 BKN024 OVC035 23/19 A2992 RMK AO2
                 T02250190 =
2017-09-20 00:15 METAR KESN 200415Z AUTO 02009KT 10SM SCT024 OVC033 23/19 A2991 RMK AO2 T02300187
                 =
2017-09-19 23:55 METAR KESN 200355Z AUTO 01006KT 10SM OVC033 23/19 A2991 RMK AO2 T02280186 =
2017-09-19 23:35 METAR KESN 200335Z AUTO 36006KT 10SM OVC036 23/19 A2991 RMK AO2 T02290186 =
2017-09-19 23:15 METAR KESN 200315Z AUTO 36007KT 10SM OVC036 23/19 A2992 RMK AO2 T02280188 =
2017-09-19 22:55 METAR KESN 200255Z AUTO 36005KT 10SM BKN038 BKN060 23/19 A2992 RMK AO2 60003
                 T02260190 =
2017-09-19 21:50 METAR KESN 200150Z 02005KT 10SM SCT035 OVC042 22/20 A2993 =

Support USWX by starting your Amazon purchase here.